createdAt,value
2018-01-21T00:00:19.670Z,91.50
2018-01-21T00:02:49.161Z,91.50
2018-01-21T00:05:18.645Z,91.40
2018-01-21T00:07:48.098Z,91.30
2018-01-21T00:10:17.723Z,91.40
2018-01-21T00:12:47.602Z,91.50
2018-01-21T00:15:17.113Z,91.50
2018-01-21T00:17:46.946Z,91.40
2018-01-21T00:20:16.816Z,91.40
2018-01-21T00:22:47.683Z,91.30
2018-01-21T00:25:17.336Z,91.40
2018-01-21T00:27:46.871Z,91.40
2018-01-21T00:30:16.822Z,91.40
2018-01-21T00:32:46.343Z,91.30
2018-01-21T00:35:15.921Z,91.30
2018-01-21T00:37:45.557Z,91.70
2018-01-21T00:40:15.053Z,91.40
2018-01-21T00:42:44.899Z,91.30
2018-01-21T00:45:15.293Z,91.20
2018-01-21T00:47:45.894Z,91.20
2018-01-21T00:50:15.547Z,91.20
2018-01-21T00:52:45.296Z,91.10
2018-01-21T00:55:15.142Z,91.20
2018-01-21T00:57:44.917Z,91.20
2018-01-21T01:00:14.637Z,91.30
2018-01-21T01:02:44.285Z,91.30
2018-01-21T01:05:15.589Z,91.30
2018-01-21T01:07:45.074Z,91.20
2018-01-21T01:10:15.472Z,91.30
2018-01-21T01:12:44.959Z,91.30
2018-01-21T01:15:14.421Z,91.20
2018-01-21T01:17:44.792Z,91.30
2018-01-21T01:20:14.263Z,91.30
2018-01-21T01:22:44.235Z,91.30
2018-01-21T01:25:14.661Z,91.20
2018-01-21T01:27:44.281Z,91.30
2018-01-21T01:30:15.624Z,91.30
2018-01-21T01:32:45.386Z,91.30
2018-01-21T01:35:15.054Z,91.20
2018-01-21T01:37:45.062Z,91.10
2018-01-21T01:40:15.354Z,90.90
2018-01-21T01:42:45.018Z,91.10
2018-01-21T01:45:14.693Z,91.20
2018-01-21T01:47:44.982Z,90.90
2018-01-21T01:50:14.703Z,90.80
2018-01-21T01:52:44.492Z,90.90
2018-01-21T01:55:14.492Z,90.90
2018-01-21T01:57:44.402Z,90.90
2018-01-21T02:00:14.202Z,91.00
2018-01-21T02:02:44.211Z,91.20
2018-01-21T02:05:14.001Z,91.20
2018-01-21T02:07:43.506Z,91.10
2018-01-21T02:10:13.219Z,91.10
2018-01-21T02:12:42.883Z,91.10
2018-01-21T02:15:13.083Z,91.10
2018-01-21T02:17:42.587Z,91.10
2018-01-21T02:20:16.782Z,90.70
2018-01-21T02:22:47.071Z,91.10
2018-01-21T02:25:16.966Z,91.00
2018-01-21T02:27:48.263Z,91.10
2018-01-21T02:30:18.045Z,91.10
2018-01-21T02:32:48.793Z,91.00
2018-01-21T02:35:18.907Z,91.00
2018-01-21T02:37:48.649Z,90.90
2018-01-21T02:40:18.886Z,90.80
2018-01-21T02:42:48.306Z,90.80
2018-01-21T02:45:18.131Z,91.00
2018-01-21T02:47:47.897Z,91.00
2018-01-21T02:50:17.417Z,91.00
2018-01-21T02:52:47.843Z,90.80
2018-01-21T02:55:17.302Z,91.00
2018-01-21T02:57:46.947Z,90.90
2018-01-21T03:00:17.342Z,91.10
2018-01-21T03:02:47.159Z,91.10
2018-01-21T03:05:16.665Z,90.70
2018-01-21T03:07:46.418Z,90.80
2018-01-21T03:10:15.889Z,90.90
2018-01-21T03:12:45.316Z,91.10
2018-01-21T03:15:15.312Z,91.00
2018-01-21T03:17:45.596Z,91.10
2018-01-21T03:20:15.164Z,91.10
2018-01-21T03:22:44.585Z,91.00
2018-01-21T03:25:14.323Z,91.00
2018-01-21T03:27:43.834Z,91.00
2018-01-21T03:30:13.419Z,90.70
2018-01-21T03:32:43.061Z,90.80
2018-01-21T03:35:12.541Z,91.00
2018-01-21T03:37:42.078Z,91.00
2018-01-21T03:40:11.529Z,91.00
2018-01-21T03:42:41.173Z,91.00
2018-01-21T03:45:10.718Z,91.00
2018-01-21T03:47:40.276Z,90.80
2018-01-21T03:50:09.907Z,90.70
2018-01-21T03:52:39.585Z,90.70
2018-01-21T03:55:09.121Z,90.70
2018-01-21T03:57:39.375Z,90.80
2018-01-21T04:00:09.014Z,90.70
2018-01-21T04:02:38.597Z,90.90
2018-01-21T04:05:08.065Z,90.90
2018-01-21T04:07:37.643Z,90.80
2018-01-21T04:10:07.237Z,90.90
2018-01-21T04:12:36.851Z,90.80
2018-01-21T04:15:06.624Z,90.60
2018-01-21T04:17:37.403Z,90.80
2018-01-21T04:20:07.073Z,90.80
2018-01-21T04:22:36.860Z,90.80
2018-01-21T04:25:12.894Z,90.90
2018-01-21T04:27:42.397Z,90.90
2018-01-21T04:30:12.113Z,90.70
2018-01-21T04:32:41.901Z,90.70
2018-01-21T04:35:11.369Z,90.80
2018-01-21T04:37:40.834Z,90.80
2018-01-21T04:40:10.380Z,90.60
2018-01-21T04:42:39.823Z,90.40
2018-01-21T04:45:09.471Z,90.30
2018-01-21T04:47:39.149Z,90.50
2018-01-21T04:50:08.769Z,90.40
2018-01-21T04:52:38.225Z,90.40
2018-01-21T04:55:07.698Z,90.60
2018-01-21T04:57:37.254Z,90.60
2018-01-21T05:00:06.706Z,90.50
2018-01-21T05:02:36.366Z,90.50
2018-01-21T05:05:06.042Z,90.60
2018-01-21T05:07:35.561Z,90.80
2018-01-21T05:10:05.178Z,90.80
2018-01-21T05:12:34.827Z,90.80
2018-01-21T05:15:04.783Z,90.80
2018-01-21T05:17:35.033Z,90.60
2018-01-21T05:20:04.480Z,90.40
2018-01-21T05:22:33.974Z,90.30
2018-01-21T05:25:03.628Z,90.50
2018-01-21T05:27:33.121Z,90.50
2018-01-21T05:30:02.790Z,90.50
2018-01-21T05:32:33.341Z,90.70
2018-01-21T05:35:02.781Z,90.70
2018-01-21T05:37:32.274Z,90.80
2018-01-21T05:40:01.955Z,90.60
2018-01-21T05:42:31.541Z,90.70
2018-01-21T05:45:01.406Z,90.80
2018-01-21T05:47:30.917Z,90.90
2018-01-21T05:50:00.442Z,90.60
2018-01-21T05:52:29.922Z,90.50
2018-01-21T05:54:59.866Z,90.60
2018-01-21T05:57:29.310Z,90.70
2018-01-21T05:59:58.979Z,90.70
2018-01-21T06:02:28.473Z,90.90
2018-01-21T06:04:58.056Z,90.80
2018-01-21T06:07:27.861Z,90.90
2018-01-21T06:09:58.606Z,90.90
2018-01-21T06:12:28.558Z,90.80
2018-01-21T06:14:58.021Z,90.80
2018-01-21T06:17:27.546Z,90.80
2018-01-21T06:19:57.069Z,90.90
2018-01-21T06:22:26.890Z,90.90
2018-01-21T06:24:56.582Z,90.50
2018-01-21T06:27:26.049Z,90.60
2018-01-21T06:29:55.706Z,90.40
2018-01-21T06:32:25.133Z,90.40
2018-01-21T06:34:54.582Z,90.60
2018-01-21T06:37:24.241Z,90.50
2018-01-21T06:39:54.410Z,90.70
2018-01-21T06:42:23.859Z,90.70
2018-01-21T06:44:54.332Z,90.70
2018-01-21T06:47:24.018Z,90.70
2018-01-21T06:49:53.448Z,90.80
2018-01-21T06:52:22.964Z,90.70
2018-01-21T06:54:52.636Z,90.70
2018-01-21T06:57:22.129Z,90.60
2018-01-21T06:59:51.558Z,90.40
2018-01-21T07:02:21.091Z,90.60
2018-01-21T07:04:50.534Z,90.70
2018-01-21T07:07:19.997Z,90.70
2018-01-21T07:09:49.466Z,90.80
2018-01-21T07:12:18.941Z,90.80
2018-01-21T07:14:48.789Z,90.80
2018-01-21T07:17:18.260Z,90.60
2018-01-21T07:19:47.717Z,90.60
2018-01-21T07:22:17.177Z,90.60
2018-01-21T07:24:46.633Z,90.70
2018-01-21T07:27:16.059Z,90.70
2018-01-21T07:29:47.043Z,90.70
2018-01-21T07:32:16.647Z,90.70
2018-01-21T07:34:46.085Z,90.60
2018-01-21T07:37:15.603Z,90.80
2018-01-21T07:39:46.665Z,90.80
2018-01-21T07:42:16.138Z,90.70
2018-01-21T07:44:45.690Z,90.70
2018-01-21T07:47:15.153Z,90.80
2018-01-21T07:49:44.750Z,90.80
2018-01-21T07:52:14.234Z,90.80
2018-01-21T07:54:44.025Z,90.80
2018-01-21T07:57:13.559Z,90.90
2018-01-21T07:59:43.221Z,90.80
2018-01-21T08:02:13.904Z,90.90
2018-01-21T08:04:43.369Z,90.90
2018-01-21T08:07:12.821Z,90.90
2018-01-21T08:09:42.339Z,90.90
2018-01-21T08:12:11.871Z,91.30
2018-01-21T08:14:41.392Z,91.00
2018-01-21T08:17:11.051Z,91.00
2018-01-21T08:19:40.522Z,91.00
2018-01-21T08:22:10.770Z,91.00
2018-01-21T08:24:40.260Z,91.00
2018-01-21T08:27:09.826Z,91.10
2018-01-21T08:29:39.434Z,91.00
2018-01-21T08:32:09.051Z,91.00
2018-01-21T08:34:42.713Z,91.10
2018-01-21T08:39:22.236Z,91.20
2018-01-21T08:41:52.045Z,91.10
2018-01-21T08:44:23.093Z,91.10
2018-01-21T08:46:53.635Z,91.10
2018-01-21T08:49:24.112Z,91.10
2018-01-21T08:51:54.662Z,91.10
2018-01-21T08:54:24.450Z,91.20
2018-01-21T08:56:54.050Z,91.10
2018-01-21T08:59:29.810Z,91.20
2018-01-21T09:01:59.364Z,91.20
2018-01-21T09:04:29.629Z,91.30
2018-01-21T09:06:59.308Z,91.40
2018-01-21T09:09:30.261Z,91.40
2018-01-21T09:11:59.856Z,91.30
2018-01-21T09:14:29.716Z,91.30
2018-01-21T09:16:59.264Z,91.30
2018-01-21T09:19:28.741Z,91.40
2018-01-21T09:21:58.368Z,91.40
2018-01-21T09:24:28.006Z,91.40
2018-01-21T09:26:59.307Z,91.50
2018-01-21T09:29:29.038Z,91.50
2018-01-21T09:31:58.686Z,91.60
2018-01-21T09:34:28.360Z,91.60
2018-01-21T09:36:57.879Z,91.60
2018-01-21T09:39:27.870Z,91.60
2018-01-21T09:41:57.436Z,91.50
2018-01-21T09:44:26.976Z,91.60
2018-01-21T09:46:57.186Z,91.60
2018-01-21T09:49:26.767Z,91.70
2018-01-21T09:51:56.489Z,91.70
2018-01-21T09:54:26.662Z,92.00
2018-01-21T09:57:00.668Z,92.10
2018-01-21T09:59:31.854Z,92.10
2018-01-21T10:02:02.196Z,92.00
2018-01-21T10:04:32.839Z,92.20
2018-01-21T10:07:02.430Z,92.30
2018-01-21T10:09:32.341Z,92.20
2018-01-21T10:12:01.876Z,92.10
2018-01-21T10:14:31.425Z,92.00
2018-01-21T10:17:01.198Z,92.10
2018-01-21T10:19:30.927Z,92.20
2018-01-21T10:22:00.568Z,92.50
2018-01-21T10:24:30.071Z,92.20
2018-01-21T10:26:59.904Z,92.20
2018-01-21T10:29:29.416Z,92.40
2018-01-21T10:31:59.361Z,92.50
2018-01-21T10:34:29.445Z,92.50
2018-01-21T10:36:59.087Z,92.50
2018-01-21T10:39:28.631Z,92.50
2018-01-21T10:41:58.496Z,92.50
2018-01-21T10:44:28.106Z,92.50
2018-01-21T10:46:59.283Z,92.50
2018-01-21T10:49:28.909Z,92.50
2018-01-21T10:51:58.777Z,92.60
2018-01-21T10:54:28.265Z,92.50
2018-01-21T10:56:58.577Z,92.40
2018-01-21T10:59:28.640Z,92.30
2018-01-21T11:01:59.088Z,92.30
2018-01-21T11:04:28.780Z,92.30
2018-01-21T11:06:59.240Z,92.30
2018-01-21T11:09:28.908Z,92.20
2018-01-21T11:11:58.662Z,91.90
2018-01-21T11:14:28.813Z,91.80
2018-01-21T11:16:59.012Z,91.80
2018-01-21T11:19:28.979Z,91.70
2018-01-21T11:21:58.763Z,91.60
2018-01-21T11:24:28.291Z,91.30
2018-01-21T11:26:57.945Z,91.20
2018-01-21T11:29:27.518Z,91.30
2018-01-21T11:31:57.475Z,91.40
2018-01-21T11:34:28.523Z,91.50
2018-01-21T11:37:06.029Z,91.60
2018-01-21T11:39:45.017Z,91.20
2018-01-21T11:42:15.864Z,91.00
2018-01-21T11:44:47.696Z,91.00
2018-01-21T11:47:18.254Z,90.90
2018-01-21T11:49:49.548Z,90.60
2018-01-21T11:52:19.775Z,90.70
2018-01-21T11:54:50.882Z,90.50
2018-01-21T11:57:33.898Z,90.50
2018-01-21T12:00:18.235Z,90.50
2018-01-21T12:02:49.477Z,90.50
2018-01-21T12:05:19.586Z,90.60
2018-01-21T12:07:50.783Z,90.60
2018-01-21T12:10:20.610Z,90.60
2018-01-21T12:12:50.466Z,90.40
2018-01-21T12:15:20.823Z,90.30
2018-01-21T12:17:51.286Z,90.40
2018-01-21T12:20:22.215Z,90.30
2018-01-21T12:22:52.843Z,90.30
2018-01-21T12:25:23.734Z,90.30
2018-01-21T12:27:54.179Z,90.30
2018-01-21T12:30:24.520Z,90.20
2018-01-21T12:32:54.746Z,90.20
2018-01-21T12:35:24.575Z,90.10
2018-01-21T12:37:54.811Z,90.30
2018-01-21T12:40:24.912Z,90.10
2018-01-21T12:42:55.009Z,90.10
2018-01-21T12:45:25.885Z,90.20
2018-01-21T12:47:56.280Z,90.20
2018-01-21T12:50:26.870Z,90.20
2018-01-21T12:52:57.117Z,90.20
2018-01-21T12:55:27.549Z,90.20
2018-01-21T12:57:57.778Z,90.10
2018-01-21T13:00:28.160Z,90.10
2018-01-21T13:02:58.740Z,90.10
2018-01-21T13:05:28.995Z,90.10
2018-01-21T13:08:03.361Z,90.10
2018-01-21T13:10:35.667Z,90.00
2018-01-21T13:13:06.162Z,90.20
2018-01-21T13:15:36.075Z,90.20
2018-01-21T13:18:06.141Z,90.20
2018-01-21T13:20:36.268Z,90.30
2018-01-21T13:23:06.278Z,90.20
2018-01-21T13:25:36.133Z,90.30
2018-01-21T13:28:06.180Z,90.40
2018-01-21T13:30:37.093Z,90.50
2018-01-21T13:33:07.080Z,90.50
2018-01-21T13:35:37.277Z,90.50
2018-01-21T13:38:08.393Z,90.60
2018-01-21T13:40:38.650Z,90.50
2018-01-21T13:43:08.675Z,90.50
2018-01-21T13:45:38.360Z,90.40
2018-01-21T13:48:08.037Z,90.50
2018-01-21T13:50:38.040Z,90.60
2018-01-21T13:53:08.289Z,90.60
2018-01-21T13:55:40.091Z,90.70
2018-01-21T13:58:10.107Z,90.70
2018-01-21T14:00:40.889Z,90.70
2018-01-21T14:03:11.529Z,90.80
2018-01-21T14:05:41.636Z,90.80
2018-01-21T14:08:11.760Z,90.70
2018-01-21T14:10:42.030Z,90.70
2018-01-21T14:13:12.434Z,90.70
2018-01-21T14:15:43.321Z,90.70
2018-01-21T14:18:13.028Z,90.70
2018-01-21T14:20:43.102Z,91.20
2018-01-21T14:23:13.322Z,91.30
2018-01-21T14:25:44.600Z,91.60
2018-01-21T14:28:14.768Z,91.50
2018-01-21T14:30:45.997Z,91.40
2018-01-21T14:33:16.219Z,91.30
2018-01-21T14:35:46.264Z,91.30
2018-01-21T14:38:17.789Z,91.10
2018-01-21T14:40:47.674Z,90.90
2018-01-21T14:43:17.523Z,90.70
2018-01-21T14:45:47.832Z,90.70
2018-01-21T14:48:18.060Z,90.70
2018-01-21T14:50:48.085Z,90.60
2018-01-21T14:53:17.889Z,90.60
2018-01-21T14:55:49.247Z,90.50
2018-01-21T14:58:19.467Z,90.50
2018-01-21T15:00:49.657Z,90.40
2018-01-21T15:03:19.652Z,90.50
2018-01-21T15:05:49.511Z,90.40
2018-01-21T15:08:20.863Z,90.40
2018-01-21T15:10:50.875Z,90.40
2018-01-21T15:13:21.711Z,90.20
2018-01-21T15:15:52.220Z,90.20
2018-01-21T15:18:22.117Z,90.30
2018-01-21T15:20:52.171Z,90.30
2018-01-21T15:23:22.909Z,90.20
2018-01-21T15:25:53.189Z,90.20
2018-01-21T15:28:23.248Z,90.20
2018-01-21T15:30:53.261Z,90.20
2018-01-21T15:33:24.610Z,90.20
2018-01-21T15:35:55.191Z,90.20
2018-01-21T15:38:25.159Z,90.20
2018-01-21T15:40:55.069Z,90.10
2018-01-21T15:43:25.700Z,90.20
2018-01-21T15:45:55.716Z,90.20
2018-01-21T15:48:25.632Z,90.20
2018-01-21T15:50:56.879Z,90.10
2018-01-21T15:53:27.616Z,90.10
2018-01-21T15:55:57.526Z,90.10
2018-01-21T15:58:28.340Z,90.10
2018-01-21T16:00:58.435Z,90.10
2018-01-21T16:03:28.292Z,90.10
2018-01-21T16:05:58.054Z,90.20
2018-01-21T16:08:27.978Z,90.10
2018-01-21T16:10:57.835Z,90.10
2018-01-21T16:13:27.847Z,90.00
2018-01-21T16:15:58.046Z,90.10
2018-01-21T16:18:28.086Z,90.00
2018-01-21T16:20:58.825Z,90.00
2018-01-21T16:23:29.449Z,89.90
2018-01-21T16:26:00.554Z,89.90
2018-01-21T16:28:30.610Z,90.00
2018-01-21T16:31:01.242Z,90.10
2018-01-21T16:33:31.870Z,89.90
2018-01-21T16:36:02.307Z,89.80
2018-01-21T16:39:08.053Z,89.90
2018-01-21T16:41:38.332Z,89.80
2018-01-21T16:44:08.579Z,89.90
2018-01-21T16:46:39.063Z,89.60
2018-01-21T16:49:09.780Z,90.00
2018-01-21T16:51:39.834Z,90.00
2018-01-21T16:54:09.860Z,89.80
2018-01-21T16:56:40.677Z,89.70
2018-01-21T16:59:10.950Z,89.50
2018-01-21T17:01:41.643Z,89.80
2018-01-21T17:04:12.018Z,89.80
2018-01-21T17:06:42.641Z,89.90
2018-01-21T17:09:12.793Z,89.90
2018-01-21T17:11:43.673Z,89.60
2018-01-21T17:14:14.930Z,90.00
2018-01-21T17:16:50.908Z,90.00
2018-01-21T17:19:21.326Z,90.00
2018-01-21T17:21:51.174Z,90.00
2018-01-21T17:24:21.516Z,89.90
2018-01-21T17:26:51.377Z,89.70
2018-01-21T17:29:21.606Z,89.90
2018-01-21T17:31:51.621Z,89.90
2018-01-21T17:34:21.541Z,89.90
2018-01-21T17:36:52.140Z,89.20
2018-01-21T17:39:21.936Z,89.20
2018-01-21T17:41:51.886Z,90.20
2018-01-21T17:44:21.856Z,89.60
2018-01-21T17:46:51.990Z,89.80
2018-01-21T17:49:22.038Z,89.70
2018-01-21T17:51:52.058Z,89.40
2018-01-21T17:54:22.589Z,89.40
2018-01-21T17:56:52.499Z,89.30
2018-01-21T17:59:22.207Z,89.60
2018-01-21T18:01:52.123Z,90.00
2018-01-21T18:04:22.441Z,89.70
2018-01-21T18:06:52.651Z,89.20
2018-01-21T18:09:23.402Z,89.60
2018-01-21T18:11:53.212Z,89.60
2018-01-21T18:14:23.443Z,89.40
2018-01-21T18:16:53.554Z,89.30
2018-01-21T18:19:25.014Z,89.40
2018-01-21T18:21:55.024Z,89.30
2018-01-21T18:24:25.098Z,89.70
2018-01-21T18:26:55.055Z,89.60
2018-01-21T18:29:25.832Z,89.60
2018-01-21T18:31:55.658Z,89.30
2018-01-21T18:34:25.617Z,89.70
2018-01-21T18:36:55.632Z,89.70
2018-01-21T18:39:25.500Z,89.60
2018-01-21T18:41:55.668Z,89.50
2018-01-21T18:44:25.743Z,90.30
2018-01-21T18:46:55.986Z,89.80
2018-01-21T18:49:26.029Z,89.30
2018-01-21T18:51:56.465Z,89.70
2018-01-21T18:54:26.774Z,89.70
2018-01-21T18:56:57.724Z,89.70
2018-01-21T18:59:27.838Z,89.70
2018-01-21T19:01:57.738Z,89.90
2018-01-21T19:04:28.479Z,89.80
2018-01-21T19:06:59.629Z,89.90
2018-01-21T19:09:30.970Z,89.80
2018-01-21T19:12:01.243Z,89.80
2018-01-21T19:14:32.578Z,90.00
2018-01-21T19:17:02.926Z,90.00
2018-01-21T19:19:33.933Z,90.00
2018-01-21T19:22:04.548Z,90.00
2018-01-21T19:24:35.638Z,89.80
2018-01-21T19:27:05.859Z,89.90
2018-01-21T19:29:36.801Z,89.80
2018-01-21T19:32:07.155Z,90.00
2018-01-21T19:34:38.090Z,89.80
2018-01-21T19:37:09.395Z,89.80
2018-01-21T19:39:39.993Z,90.00
2018-01-21T19:42:10.608Z,89.80
2018-01-21T19:44:42.116Z,90.00
2018-01-21T19:47:12.726Z,90.00
2018-01-21T19:49:43.312Z,89.90
2018-01-21T19:52:20.697Z,90.00
2018-01-21T19:54:57.940Z,90.00
2018-01-21T19:57:28.818Z,90.00
2018-01-21T19:59:59.467Z,90.10
2018-01-21T20:02:29.962Z,90.00
2018-01-21T20:05:00.799Z,90.10
2018-01-21T20:07:31.146Z,90.10
2018-01-21T20:10:01.739Z,90.10
2018-01-21T20:12:33.044Z,90.00
2018-01-21T20:15:04.071Z,90.00
2018-01-21T20:17:35.592Z,90.10
2018-01-21T20:20:06.469Z,90.10
2018-01-21T20:22:36.476Z,90.10
2018-01-21T20:25:06.612Z,90.00
2018-01-21T20:27:36.645Z,90.10
2018-01-21T20:30:07.150Z,90.00
2018-01-21T20:32:38.092Z,90.40
2018-01-21T20:35:08.563Z,90.10
2018-01-21T20:37:38.714Z,90.10
2018-01-21T20:40:08.948Z,90.10
2018-01-21T20:42:40.207Z,90.10
2018-01-21T20:45:10.559Z,90.10
2018-01-21T20:47:41.140Z,90.10
2018-01-21T20:50:12.090Z,90.10
2018-01-21T20:52:49.482Z,90.10
2018-01-21T20:55:21.447Z,90.10
2018-01-21T20:57:51.568Z,90.10
2018-01-21T21:00:23.282Z,90.10
2018-01-21T21:02:53.609Z,90.10
2018-01-21T21:05:23.600Z,90.10
2018-01-21T21:07:53.466Z,90.10
2018-01-21T21:10:23.792Z,90.10
2018-01-21T21:12:54.913Z,90.10
2018-01-21T21:15:25.902Z,90.10
2018-01-21T21:17:56.004Z,90.10
2018-01-21T21:20:26.195Z,90.10
2018-01-21T21:22:56.851Z,90.10
2018-01-21T21:25:27.580Z,90.20
2018-01-21T21:27:58.098Z,90.20
2018-01-21T21:30:29.118Z,90.20
2018-01-21T21:32:59.495Z,90.20
2018-01-21T21:35:29.725Z,90.20
2018-01-21T21:38:00.176Z,90.20
2018-01-21T21:40:30.373Z,90.20
2018-01-21T21:43:00.761Z,90.10
2018-01-21T21:45:31.727Z,90.20
2018-01-21T21:48:02.949Z,90.20
2018-01-21T21:50:33.274Z,90.20
2018-01-21T21:53:03.276Z,90.20
2018-01-21T21:55:35.818Z,90.20
2018-01-21T21:58:11.519Z,90.60
2018-01-21T22:00:41.663Z,90.50
2018-01-21T22:03:12.472Z,90.20
2018-01-21T22:05:42.333Z,90.20
2018-01-21T22:08:12.576Z,90.20
2018-01-21T22:10:43.137Z,90.20
2018-01-21T22:13:12.949Z,90.30
2018-01-21T22:15:42.863Z,90.20
2018-01-21T22:18:12.731Z,90.30
2018-01-21T22:20:42.700Z,90.30
2018-01-21T22:23:12.542Z,90.30
2018-01-21T22:25:42.384Z,90.30
2018-01-21T22:28:12.333Z,90.30
2018-01-21T22:30:42.302Z,90.30
2018-01-21T22:33:12.061Z,90.30
2018-01-21T22:35:41.907Z,90.30
2018-01-21T22:38:13.340Z,90.30
2018-01-21T22:40:43.440Z,90.30
2018-01-21T22:43:13.149Z,90.30
2018-01-21T22:45:43.011Z,90.30
2018-01-21T22:48:13.138Z,90.30
2018-01-21T22:50:43.302Z,90.30
2018-01-21T22:53:13.011Z,90.30
2018-01-21T22:55:44.316Z,90.40
2018-01-21T22:58:14.222Z,90.30
2018-01-21T23:00:44.495Z,90.40
2018-01-21T23:03:14.255Z,90.30
2018-01-21T23:05:44.017Z,90.40
2018-01-21T23:08:13.729Z,90.30
2018-01-21T23:10:43.845Z,90.70
2018-01-21T23:13:13.862Z,90.30
2018-01-21T23:15:44.698Z,90.30
2018-01-21T23:18:14.557Z,90.30
2018-01-21T23:21:04.500Z,90.30
2018-01-21T23:23:34.314Z,90.30
2018-01-21T23:26:05.026Z,90.30
2018-01-21T23:28:34.934Z,90.30
2018-01-21T23:31:05.073Z,90.40
2018-01-21T23:33:35.090Z,90.40
2018-01-21T23:36:04.907Z,90.40
2018-01-21T23:38:34.613Z,90.40
2018-01-21T23:41:05.437Z,90.40
2018-01-21T23:43:35.465Z,90.40
2018-01-21T23:46:06.812Z,90.40
2018-01-21T23:48:36.776Z,90.40
2018-01-21T23:51:06.744Z,90.40
2018-01-21T23:53:36.560Z,90.40
2018-01-21T23:56:06.400Z,90.40
2018-01-21T23:58:36.181Z,90.40
